Time;durP1;ratioP1;P1;durP2;ratioP2;P2;SDS_P1;SDS_P2;PMS_P1;PMS_P2;Temp;Humidity;BMP_temperature;BMP_pressure;BME280_temperature;BME280_humidity;BME280_pressure;Samples;Min_cycle;Max_cycle;Signal;HPM_P1;HPM_P2
2022/07/06 00:02:05;;;;;;;2.42;1.40;;;26.50;67.30;;;;;;4994783;28;20049;-76
2022/07/06 00:04:30;;;;;;;7.22;0.80;;;26.30;68.90;;;;;;4994699;28;20073;-76
2022/07/06 00:06:57;;;;;;;4.05;0.90;;;26.20;70.30;;;;;;4994541;28;20030;-76
2022/07/06 00:09:23;;;;;;;2.78;1.15;;;26.00;71.50;;;;;;4994891;28;20026;-77
2022/07/06 00:11:48;;;;;;;2.47;1.08;;;26.00;72.10;;;;;;4994761;28;20041;-76
2022/07/06 00:14:14;;;;;;;1.80;0.80;;;26.10;71.40;;;;;;4977148;28;20026;-77
2022/07/06 00:16:40;;;;;;;1.05;0.95;;;26.10;71.20;;;;;;4994339;28;20026;-76
2022/07/06 00:19:05;;;;;;;0.95;0.80;;;26.10;70.50;;;;;;4994674;28;20015;-76
2022/07/06 00:21:31;;;;;;;4.68;1.25;;;26.10;70.30;;;;;;4994539;28;20030;-76
2022/07/06 00:23:57;;;;;;;1.50;0.68;;;26.10;69.80;;;;;;4977159;28;20424;-77
2022/07/06 00:26:23;;;;;;;2.20;0.85;;;26.00;69.60;;;;;;4994532;28;20054;-76
2022/07/06 00:28:48;;;;;;;0.68;0.60;;;26.00;69.90;;;;;;4994330;28;20033;-76
2022/07/06 00:31:14;;;;;;;1.00;0.82;;;26.00;70.40;;;;;;5004791;28;20022;-77
2022/07/06 00:33:40;;;;;;;0.77;0.63;;;26.10;71.10;;;;;;4996063;28;20022;-77
2022/07/06 00:36:05;;;;;;;1.98;0.73;;;26.00;72.00;;;;;;4995949;28;20042;-76
2022/07/06 00:38:31;;;;;;;0.95;0.90;;;26.00;73.00;;;;;;4995695;28;20061;-76
2022/07/06 00:40:57;;;;;;;6.47;1.10;;;26.00;71.70;;;;;;5013453;28;20367;-77
2022/07/06 00:43:23;;;;;;;2.13;0.95;;;26.00;71.40;;;;;;5013465;28;20024;-76
2022/07/06 00:45:49;;;;;;;0.75;0.68;;;25.90;74.00;;;;;;5013298;28;20108;-77
2022/07/06 00:48:14;;;;;;;2.08;0.95;;;25.80;75.10;;;;;;5013212;28;20607;-77
2022/07/06 00:50:40;;;;;;;2.42;0.75;;;25.70;77.30;;;;;;5013380;28;20103;-77
2022/07/06 00:53:08;;;;;;;1.95;0.82;;;25.60;79.10;;;;;;5009712;28;20537;-76
2022/07/06 00:55:39;;;;;;;1.02;0.93;;;25.60;80.20;;;;;;4995490;28;20479;-76
2022/07/06 00:58:05;;;;;;;3.97;1.20;;;25.50;80.70;;;;;;5013104;28;20021;-78
2022/07/06 01:00:31;;;;;;;1.58;0.90;;;25.40;85.10;;;;;;5013433;28;20022;-77
2022/07/06 01:02:57;;;;;;;3.13;1.42;;;25.30;88.20;;;;;;4995946;28;20117;-77
2022/07/06 01:05:23;;;;;;;1.48;1.00;;;25.20;90.00;;;;;;5012888;28;20147;-76
2022/07/06 01:07:52;;;;;;;1.67;0.88;;;25.10;90.40;;;;;;5013326;28;20029;-77
2022/07/06 01:10:19;;;;;;;3.92;1.23;;;25.00;91.20;;;;;;5013235;28;20025;-77
2022/07/06 01:12:46;;;;;;;3.55;1.45;;;24.90;92.10;;;;;;5013248;28;20022;-77
2022/07/06 01:15:14;;;;;;;2.70;1.02;;;24.90;91.30;;;;;;5013193;28;20025;-76
2022/07/06 01:17:41;;;;;;;1.77;1.25;;;24.80;89.10;;;;;;4995329;28;20030;-76
2022/07/06 01:20:12;;;;;;;4.07;1.20;;;24.60;88.50;;;;;;4995624;28;20371;-77
2022/07/06 01:22:39;;;;;;;1.58;1.15;;;24.60;88.40;;;;;;5013209;28;20041;-77
2022/07/06 01:25:08;;;;;;;1.40;1.27;;;24.60;88.00;;;;;;4995439;28;20117;-77
2022/07/06 01:27:38;;;;;;;1.15;0.90;;;24.60;86.80;;;;;;5012923;28;20117;-77
2022/07/06 01:30:13;;;;;;;3.67;1.40;;;24.60;86.80;;;;;;5013128;28;20018;-77
2022/07/06 01:32:41;;;;;;;1.38;1.20;;;24.50;86.60;;;;;;4995538;28;20519;-76
2022/07/06 01:35:09;;;;;;;1.02;1.00;;;24.60;86.30;;;;;;5013042;28;20014;-76
2022/07/06 01:37:35;;;;;;;1.45;1.35;;;24.50;84.70;;;;;;5012978;28;20030;-77
2022/07/06 01:40:06;;;;;;;1.60;1.50;;;24.40;84.60;;;;;;4998049;28;20427;-77
2022/07/06 01:42:34;;;;;;;2.13;1.00;;;24.50;84.70;;;;;;5017139;28;20048;-77
2022/07/06 01:45:01;;;;;;;1.20;1.05;;;24.60;84.00;;;;;;5017128;28;20022;-77
2022/07/06 01:47:27;;;;;;;1.35;1.08;;;24.70;83.80;;;;;;5016944;28;20065;-77
2022/07/06 01:49:53;;;;;;;1.00;1.00;;;24.60;83.90;;;;;;5016946;28;20459;-76
2022/07/06 01:52:18;;;;;;;1.05;1.05;;;24.80;84.40;;;;;;5016811;28;20117;-76
2022/07/06 01:54:44;;;;;;;4.13;1.00;;;24.80;84.50;;;;;;5017054;28;20092;-76
2022/07/06 01:57:10;;;;;;;3.55;0.82;;;24.80;84.50;;;;;;5016918;28;20034;-76
2022/07/06 01:59:36;;;;;;;1.15;1.08;;;24.90;84.20;;;;;;5016907;28;20025;-78
2022/07/06 02:02:02;;;;;;;1.33;0.90;;;24.90;84.80;;;;;;5016663;28;20034;-77
2022/07/06 02:04:28;;;;;;;1.05;1.05;;;25.00;86.30;;;;;;5016700;28;20042;-77
2022/07/06 02:06:54;;;;;;;1.77;0.95;;;25.00;86.20;;;;;;5016656;28;20084;-76
2022/07/06 02:09:19;;;;;;;1.85;1.00;;;25.10;86.70;;;;;;4999105;28;20022;-76
2022/07/06 02:11:45;;;;;;;0.93;0.90;;;25.00;87.90;;;;;;4998992;28;20501;-76
2022/07/06 02:14:11;;;;;;;1.10;1.00;;;25.00;89.50;;;;;;5016671;28;20113;-76
2022/07/06 02:16:37;;;;;;;0.95;0.95;;;25.00;89.60;;;;;;4998827;28;20514;-77
2022/07/06 02:19:03;;;;;;;1.15;0.88;;;25.00;89.30;;;;;;5016397;28;20029;-76
2022/07/06 02:21:29;;;;;;;1.60;0.90;;;25.10;88.70;;;;;;4998940;28;20034;-76
2022/07/06 02:23:54;;;;;;;0.70;0.70;;;25.10;89.40;;;;;;5016342;28;20030;-76
2022/07/06 02:26:20;;;;;;;1.77;0.88;;;25.20;89.90;;;;;;5016442;28;20097;-77
2022/07/06 02:28:47;;;;;;;1.50;0.98;;;25.20;90.10;;;;;;4998672;28;20060;-77
2022/07/06 02:31:13;;;;;;;0.88;0.88;;;25.20;90.40;;;;;;5016286;28;20096;-76
2022/07/06 02:33:40;;;;;;;0.80;0.70;;;25.10;90.50;;;;;;5016303;28;20026;-76
2022/07/06 02:36:06;;;;;;;1.52;1.10;;;25.10;91.10;;;;;;4998626;28;20053;-77
2022/07/06 02:38:32;;;;;;;0.95;0.95;;;25.00;91.40;;;;;;5015945;28;20438;-77
2022/07/06 02:40:58;;;;;;;0.70;0.70;;;25.00;92.20;;;;;;4998535;28;20022;-77
2022/07/06 02:43:23;;;;;;;0.82;0.82;;;24.80;92.60;;;;;;5011268;28;20045;-76
2022/07/06 02:45:49;;;;;;;1.30;1.15;;;24.80;93.10;;;;;;4978673;28;20030;-77
2022/07/06 02:48:15;;;;;;;1.20;1.08;;;24.70;93.00;;;;;;4978725;28;20026;-77
2022/07/06 02:50:41;;;;;;;1.15;0.75;;;24.70;93.10;;;;;;4977367;28;20111;-76
2022/07/06 02:53:06;;;;;;;1.70;0.85;;;24.70;93.10;;;;;;4996030;28;20113;-77
2022/07/06 02:55:32;;;;;;;1.27;0.82;;;24.70;92.20;;;;;;4996276;28;20030;-76
2022/07/06 02:57:58;;;;;;;1.05;0.95;;;24.80;92.50;;;;;;4995852;28;20559;-77
2022/07/06 03:00:24;;;;;;;0.85;0.82;;;24.80;93.30;;;;;;4978687;28;20026;-77
2022/07/06 03:02:49;;;;;;;0.70;0.70;;;24.80;93.70;;;;;;4996137;28;20015;-77
2022/07/06 03:05:15;;;;;;;0.90;0.90;;;24.80;92.90;;;;;;4995901;28;20046;-76
2022/07/06 03:07:41;;;;;;;0.80;0.80;;;24.80;92.70;;;;;;4995795;28;20484;-77
2022/07/06 03:10:07;;;;;;;1.05;0.98;;;24.90;93.20;;;;;;4978394;28;20504;-76
2022/07/06 03:12:33;;;;;;;0.82;0.82;;;25.00;93.10;;;;;;4995724;28;20392;-76
2022/07/06 03:14:58;;;;;;;1.30;0.93;;;25.00;93.40;;;;;;4995937;28;20026;-76
2022/07/06 03:17:24;;;;;;;0.80;0.80;;;25.00;93.40;;;;;;4978242;28;20031;-77
2022/07/06 03:19:50;;;;;;;1.13;1.13;;;25.00;93.10;;;;;;4978041;28;20026;-76
2022/07/06 03:22:16;;;;;;;1.40;0.70;;;25.00;92.80;;;;;;4995769;28;20065;-77
2022/07/06 03:24:41;;;;;;;1.00;0.88;;;25.00;92.50;;;;;;4978081;28;20014;-76
2022/07/06 03:27:07;;;;;;;1.23;0.90;;;25.00;92.10;;;;;;4995367;28;20114;-76
2022/07/06 03:29:33;;;;;;;0.90;0.90;;;25.10;92.10;;;;;;4978045;28;20030;-76
2022/07/06 03:31:59;;;;;;;1.17;1.15;;;25.10;91.90;;;;;;4978055;28;20031;-76
2022/07/06 03:34:24;;;;;;;2.78;1.20;;;25.20;91.70;;;;;;4995461;28;20026;-76
2022/07/06 03:36:50;;;;;;;1.02;1.02;;;25.30;92.00;;;;;;4977879;28;20476;-76
2022/07/06 03:39:16;;;;;;;0.70;0.70;;;25.20;92.10;;;;;;4995363;28;20023;-77
2022/07/06 03:41:42;;;;;;;2.50;0.98;;;25.20;92.30;;;;;;4995377;28;20026;-76
2022/07/06 03:44:07;;;;;;;1.38;1.05;;;25.20;92.50;;;;;;4995414;28;20026;-76
2022/07/06 03:46:33;;;;;;;1.25;1.13;;;25.20;93.00;;;;;;4995219;28;20499;-76
2022/07/06 03:48:59;;;;;;;0.98;0.93;;;25.10;92.40;;;;;;4995286;28;20029;-77
2022/07/06 03:51:24;;;;;;;1.63;0.98;;;25.20;92.30;;;;;;4995277;28;20109;-76
2022/07/06 03:53:50;;;;;;;0.98;0.98;;;25.20;92.50;;;;;;4977608;28;20027;-76
2022/07/06 03:56:28;;;;;;;0.90;0.90;;;25.20;92.60;;;;;;4994943;28;20097;-76
2022/07/06 03:58:59;;;;;;;1.00;0.82;;;25.20;92.70;;;;;;4995163;28;20018;-76
2022/07/06 04:01:25;;;;;;;3.20;1.40;;;25.20;92.60;;;;;;4977278;28;20105;-77
2022/07/06 04:03:51;;;;;;;2.65;0.93;;;25.20;90.90;;;;;;4994631;28;20141;-76
2022/07/06 04:06:17;;;;;;;1.23;1.15;;;25.30;90.20;;;;;;4977610;28;20535;-76
2022/07/06 04:08:43;;;;;;;1.38;1.00;;;25.30;90.60;;;;;;4977296;28;20503;-77
2022/07/06 04:11:09;;;;;;;0.82;0.82;;;25.20;90.70;;;;;;4994811;28;20023;-77
2022/07/06 04:13:35;;;;;;;1.67;1.58;;;25.20;90.90;;;;;;4977292;28;20042;-76
2022/07/06 04:16:01;;;;;;;1.38;1.10;;;25.00;91.20;;;;;;4994596;28;20023;-77
2022/07/06 04:18:26;;;;;;;0.82;0.82;;;25.00;91.40;;;;;;4994487;28;20037;-77
2022/07/06 04:20:52;;;;;;;1.33;0.75;;;24.90;91.70;;;;;;5007812;28;20395;-76
2022/07/06 04:23:18;;;;;;;2.13;1.13;;;24.80;92.50;;;;;;4996355;28;20022;-76
2022/07/06 04:25:44;;;;;;;5.32;1.20;;;24.70;93.70;;;;;;5014197;28;20029;-76
2022/07/06 04:28:09;;;;;;;3.88;1.38;;;24.60;94.40;;;;;;4996386;28;20070;-76
2022/07/06 04:30:35;;;;;;;1.15;1.13;;;24.40;94.90;;;;;;4996524;28;20057;-76
2022/07/06 04:33:01;;;;;;;1.73;1.45;;;24.40;95.30;;;;;;5013909;28;20057;-76
2022/07/06 04:35:27;;;;;;;1.10;1.10;;;24.40;95.10;;;;;;5013905;28;20034;-76
2022/07/06 04:37:53;;;;;;;1.58;1.45;;;24.40;95.50;;;;;;4982209;28;20026;-76
2022/07/06 04:40:18;;;;;;;1.83;1.60;;;24.40;95.60;;;;;;4976873;28;20421;-76
2022/07/06 04:42:44;;;;;;;1.30;1.30;;;24.40;95.50;;;;;;4976714;28;20110;-77
2022/07/06 04:45:10;;;;;;;1.10;1.10;;;24.40;95.70;;;;;;4994203;28;20584;-77
2022/07/06 04:47:36;;;;;;;2.38;1.85;;;24.40;95.70;;;;;;4993835;28;20084;-76
2022/07/06 04:50:06;;;;;;;1.00;1.00;;;24.50;95.40;;;;;;5006730;28;20042;-77
2022/07/06 04:52:32;;;;;;;3.53;1.20;;;24.60;95.00;;;;;;4979289;28;20022;-77
2022/07/06 04:54:58;;;;;;;1.33;1.30;;;24.70;94.90;;;;;;5008633;28;20387;-77
2022/07/06 04:57:25;;;;;;;1.15;1.05;;;24.80;94.20;;;;;;4995576;28;20033;-76
2022/07/06 04:59:52;;;;;;;1.85;1.35;;;24.80;93.40;;;;;;5010512;28;20583;-76
2022/07/06 05:02:18;;;;;;;1.73;1.15;;;24.90;93.70;;;;;;5002385;28;20464;-76
2022/07/06 05:04:44;;;;;;;5.80;1.35;;;25.10;93.40;;;;;;5010080;28;20546;-76
2022/07/06 05:07:10;;;;;;;4.30;1.23;;;25.20;93.40;;;;;;5010353;28;20152;-76
2022/07/06 05:09:35;;;;;;;4.80;1.30;;;25.20;93.60;;;;;;5013427;28;20498;-76
2022/07/06 05:12:01;;;;;;;1.30;1.20;;;25.30;92.60;;;;;;5013546;28;20479;-76
2022/07/06 05:14:27;;;;;;;1.50;1.40;;;25.50;92.00;;;;;;5012722;28;20026;-76
2022/07/06 05:16:52;;;;;;;1.70;1.00;;;25.50;92.40;;;;;;5013122;28;20032;-76
2022/07/06 05:19:18;;;;;;;2.35;1.65;;;25.70;92.70;;;;;;4995696;28;20426;-77
2022/07/06 05:21:44;;;;;;;3.50;1.05;;;25.80;92.40;;;;;;5013457;28;20101;-77
2022/07/06 05:24:10;;;;;;;4.00;1.33;;;25.90;92.20;;;;;;5013143;28;20021;-77
2022/07/06 05:26:35;;;;;;;2.90;1.48;;;26.00;91.50;;;;;;4995349;28;20045;-77
2022/07/06 05:29:01;;;;;;;1.67;1.17;;;26.00;91.50;;;;;;5013093;28;20095;-76
2022/07/06 05:31:27;;;;;;;2.17;1.35;;;26.00;91.70;;;;;;5012941;28;20053;-77
2022/07/06 05:33:52;;;;;;;1.20;1.10;;;26.00;91.70;;;;;;4995111;28;20064;-77
2022/07/06 05:36:18;;;;;;;3.63;1.33;;;26.10;91.80;;;;;;4995135;28;20021;-76
2022/07/06 05:38:44;;;;;;;2.80;0.98;;;26.10;91.30;;;;;;4995191;28;20124;-76
2022/07/06 05:41:10;;;;;;;1.23;1.00;;;26.10;91.20;;;;;;5013064;28;20022;-77
2022/07/06 05:43:37;;;;;;;1.77;1.25;;;26.10;91.10;;;;;;5012805;28;20034;-76
2022/07/06 05:46:03;;;;;;;7.00;1.00;;;26.20;91.30;;;;;;5012512;28;20053;-76
2022/07/06 05:51:14;;;;;;;1.70;1.10;;;26.40;91.60;;;;;;5012939;28;20049;-76
2022/07/06 05:53:39;;;;;;;1.00;1.00;;;26.40;91.50;;;;;;5012618;28;20084;-76
2022/07/06 05:56:05;;;;;;;1.23;1.10;;;26.40;92.30;;;;;;5012249;28;20038;-77
2022/07/06 05:58:34;;;;;;;2.92;1.20;;;26.30;91.80;;;;;;5012760;28;20057;-76
2022/07/06 06:01:00;;;;;;;2.55;1.45;;;26.30;92.70;;;;;;5013093;28;20022;-76
2022/07/06 06:03:25;;;;;;;3.08;1.25;;;26.40;92.00;;;;;;4995037;28;20052;-77
2022/07/06 06:05:51;;;;;;;0.80;0.80;;;26.50;91.90;;;;;;4995265;28;20109;-76
2022/07/06 06:08:17;;;;;;;0.90;0.90;;;26.50;91.90;;;;;;5012797;28;20558;-76
2022/07/06 06:10:42;;;;;;;2.88;1.00;;;26.60;91.60;;;;;;5012850;28;20445;-77
2022/07/06 06:13:08;;;;;;;0.98;0.88;;;26.70;91.10;;;;;;4995146;28;20497;-76
2022/07/06 06:15:34;;;;;;;1.00;0.95;;;26.70;90.00;;;;;;4995173;28;20041;-76
2022/07/06 06:18:00;;;;;;;4.47;1.30;;;26.70;88.30;;;;;;5012819;28;20083;-76
2022/07/06 06:20:26;;;;;;;2.33;1.20;;;26.70;89.00;;;;;;4995168;28;20029;-76
2022/07/06 06:22:57;;;;;;;1.00;0.93;;;26.90;89.40;;;;;;5012601;28;20023;-76
2022/07/06 06:25:34;;;;;;;1.92;1.13;;;26.90;89.60;;;;;;5014102;28;20071;-76
2022/07/06 06:28:02;;;;;;;3.60;1.10;;;26.90;88.30;;;;;;5016331;28;20030;-76
2022/07/06 06:30:28;;;;;;;1.83;1.38;;;26.90;88.30;;;;;;5016303;28;20037;-76
2022/07/06 06:33:06;;;;;;;11.82;1.83;;;26.90;86.50;;;;;;4998317;28;20030;-76
2022/07/06 06:35:31;;;;;;;4.55;1.30;;;26.90;89.50;;;;;;4998154;28;20030;-76
2022/07/06 06:37:57;;;;;;;1.33;1.13;;;26.90;87.60;;;;;;4998026;28;20033;-75
2022/07/06 06:40:23;;;;;;;0.98;0.90;;;26.90;87.20;;;;;;5015579;28;20022;-76
2022/07/06 06:42:48;;;;;;;1.00;1.00;;;26.90;86.00;;;;;;5015726;28;20026;-76
2022/07/06 06:45:14;;;;;;;1.10;1.00;;;26.90;86.70;;;;;;5015528;28;20018;-76
2022/07/06 06:47:40;;;;;;;2.35;1.20;;;27.00;87.00;;;;;;4998208;28;20663;-76
2022/07/06 06:50:06;;;;;;;3.55;1.10;;;27.00;86.80;;;;;;4998413;28;20117;-76
2022/07/06 06:52:31;;;;;;;1.95;1.10;;;27.00;87.30;;;;;;5015640;28;20479;-76
2022/07/06 06:54:57;;;;;;;1.42;0.98;;;27.10;87.00;;;;;;5015872;28;20080;-76
2022/07/06 06:57:23;;;;;;;1.13;1.02;;;27.10;86.50;;;;;;5015431;28;20026;-76
2022/07/06 06:59:49;;;;;;;2.05;0.80;;;27.10;85.40;;;;;;4998268;28;20113;-76
2022/07/06 07:02:14;;;;;;;1.45;1.00;;;27.20;84.40;;;;;;5015787;28;20033;-76
2022/07/06 07:04:40;;;;;;;4.55;1.45;;;27.20;84.30;;;;;;4997828;28;20096;-76
2022/07/06 07:07:06;;;;;;;12.88;1.58;;;27.30;86.70;;;;;;5015693;28;20026;-76
2022/07/06 07:09:32;;;;;;;2.60;1.25;;;27.30;87.20;;;;;;5011550;28;20084;-76
2022/07/06 07:11:57;;;;;;;1.65;1.00;;;27.40;86.50;;;;;;4997277;28;20567;-75
2022/07/06 07:14:23;;;;;;;2.13;1.15;;;27.40;84.60;;;;;;4997432;28;20034;-74
2022/07/06 07:16:49;;;;;;;2.45;1.02;;;27.40;85.60;;;;;;5015041;28;20030;-75
2022/07/06 07:19:15;;;;;;;1.85;1.10;;;27.40;84.80;;;;;;4997721;28;20376;-75
2022/07/06 07:21:40;;;;;;;1.98;1.20;;;27.40;83.50;;;;;;5015269;28;20026;-75
2022/07/06 07:24:07;;;;;;;0.82;0.82;;;27.50;84.00;;;;;;4997695;28;20021;-75
2022/07/06 07:26:33;;;;;;;1.17;1.08;;;27.50;83.50;;;;;;4996799;28;20484;-75
2022/07/06 07:28:58;;;;;;;5.82;1.40;;;27.50;81.70;;;;;;5015308;28;20050;-75
2022/07/06 07:31:24;;;;;;;3.15;1.23;;;27.50;82.10;;;;;;5015210;28;20021;-75
2022/07/06 07:33:50;;;;;;;1.88;1.35;;;27.50;82.30;;;;;;5015004;28;20026;-75
2022/07/06 07:36:16;;;;;;;5.35;1.40;;;27.60;81.70;;;;;;5014330;28;20026;-75
2022/07/06 07:38:42;;;;;;;0.93;0.93;;;27.70;83.40;;;;;;5014509;28;20033;-75
2022/07/06 07:41:07;;;;;;;1.20;1.10;;;27.70;81.60;;;;;;5014677;28;20116;-76
2022/07/06 07:43:33;;;;;;;1.30;1.20;;;27.80;80.60;;;;;;5014624;28;20033;-76
2022/07/06 07:45:59;;;;;;;2.80;1.10;;;27.90;80.30;;;;;;5014773;28;20030;-75
2022/07/06 07:48:25;;;;;;;2.42;0.95;;;27.80;80.30;;;;;;5014744;28;20021;-75
2022/07/06 07:50:50;;;;;;;1.63;1.02;;;27.90;80.50;;;;;;5014713;28;20033;-75
2022/07/06 07:53:16;;;;;;;1.05;0.98;;;27.90;78.60;;;;;;5014692;28;20091;-75
2022/07/06 07:55:42;;;;;;;0.95;0.95;;;27.90;80.80;;;;;;5014602;28;20408;-75
2022/07/06 07:58:08;;;;;;;3.05;1.15;;;28.00;79.80;;;;;;5014338;28;20033;-76
2022/07/06 08:00:34;;;;;;;1.35;1.25;;;28.00;79.20;;;;;;5014665;28;20109;-75
2022/07/06 08:03:00;;;;;;;1.67;1.02;;;28.10;77.80;;;;;;5014508;28;20128;-75
2022/07/06 08:05:26;;;;;;;3.67;1.00;;;28.10;79.00;;;;;;5014267;28;20038;-75
2022/07/06 08:07:52;;;;;;;1.58;1.00;;;28.10;77.10;;;;;;5014327;28;20026;-75
2022/07/06 08:10:19;;;;;;;2.85;1.13;;;28.10;76.70;;;;;;5014473;28;20097;-75
2022/07/06 08:12:45;;;;;;;2.10;1.35;;;28.10;76.40;;;;;;4996616;28;20595;-75
2022/07/06 08:15:10;;;;;;;5.22;1.05;;;28.10;76.70;;;;;;4996237;28;20026;-75
2022/07/06 08:17:36;;;;;;;1.95;1.20;;;28.10;76.70;;;;;;4996436;28;20025;-75
2022/07/06 08:20:02;;;;;;;4.30;1.13;;;28.10;76.90;;;;;;5014347;28;20021;-75
2022/07/06 08:22:29;;;;;;;1.02;1.02;;;28.10;76.40;;;;;;4996396;28;20026;-76
2022/07/06 08:24:55;;;;;;;2.80;0.82;;;28.10;75.30;;;;;;4996302;28;20118;-75
2022/07/06 08:27:21;;;;;;;1.95;1.05;;;28.10;75.30;;;;;;4996163;28;20081;-75
2022/07/06 08:29:47;;;;;;;3.75;1.13;;;28.10;73.80;;;;;;4996290;28;20076;-75
2022/07/06 08:32:12;;;;;;;2.67;1.10;;;28.10;73.70;;;;;;5013680;28;20061;-75
2022/07/06 08:34:38;;;;;;;3.35;1.33;;;28.30;77.00;;;;;;5013854;28;20157;-76
2022/07/06 08:37:04;;;;;;;1.10;1.10;;;28.40;74.00;;;;;;5013826;28;20108;-75
2022/07/06 08:39:29;;;;;;;3.00;1.20;;;28.40;73.50;;;;;;4996237;28;20030;-76
2022/07/06 08:41:56;;;;;;;1.48;1.38;;;28.50;73.20;;;;;;5013782;28;20033;-76
2022/07/06 08:44:24;;;;;;;1.95;1.20;;;28.50;73.00;;;;;;5013592;28;20033;-75
2022/07/06 08:46:54;;;;;;;3.70;1.25;;;28.60;72.20;;;;;;5013546;28;20542;-76
2022/07/06 08:49:20;;;;;;;5.78;2.63;;;28.60;71.50;;;;;;4995933;28;20061;-75
2022/07/06 08:51:47;;;;;;;13.35;3.30;;;28.60;72.90;;;;;;5013059;28;20480;-76
2022/07/06 08:54:14;;;;;;;5.72;3.88;;;28.70;72.90;;;;;;4996003;28;20077;-75
2022/07/06 08:56:40;;;;;;;3.33;3.03;;;28.70;72.10;;;;;;5013346;28;20068;-76
2022/07/06 08:59:08;;;;;;;4.82;4.15;;;28.80;70.90;;;;;;4995747;28;20372;-75
2022/07/06 09:01:35;;;;;;;8.77;5.10;;;28.80;70.60;;;;;;4995736;28;20061;-75
2022/07/06 09:04:05;;;;;;;3.50;3.20;;;28.80;72.30;;;;;;4995664;28;20054;-75
2022/07/06 09:06:32;;;;;;;10.02;2.92;;;28.90;73.50;;;;;;5013327;28;20014;-76
2022/07/06 09:08:59;;;;;;;3.50;2.63;;;29.10;73.20;;;;;;4995533;28;20113;-75
2022/07/06 09:11:25;;;;;;;2.47;2.17;;;29.20;72.70;;;;;;4995667;28;20022;-75
2022/07/06 09:13:52;;;;;;;3.65;2.00;;;29.30;72.10;;;;;;4995616;28;20095;-75
2022/07/06 09:16:24;;;;;;;4.65;1.67;;;29.30;70.80;;;;;;5013041;28;20080;-75
2022/07/06 09:18:50;;;;;;;2.22;1.40;;;29.30;72.70;;;;;;5012128;28;20030;-76
2022/07/06 09:21:27;;;;;;;2.20;1.30;;;29.30;69.50;;;;;;5012371;28;20022;-75
2022/07/06 09:24:04;;;;;;;1.10;1.10;;;29.20;68.90;;;;;;5012773;28;20049;-75
2022/07/06 09:26:30;;;;;;;1.33;1.20;;;29.10;68.00;;;;;;4994979;28;20026;-75
2022/07/06 09:28:56;;;;;;;3.75;1.15;;;29.20;68.40;;;;;;5012994;28;20022;-75
2022/07/06 09:31:22;;;;;;;1.70;1.60;;;29.20;66.50;;;;;;5012972;28;20058;-75
2022/07/06 09:33:54;;;;;;;1.40;1.30;;;29.30;68.00;;;;;;5012790;28;20557;-76
2022/07/06 09:36:37;;;;;;;;;;;29.30;68.60;;;;;;5013238;28;20062;-75
2022/07/06 09:39:21;;;;;;;3.15;1.20;;;29.30;67.20;;;;;;4995292;28;20244;-75
2022/07/06 09:41:48;;;;;;;1.35;1.25;;;29.30;68.30;;;;;;5013052;28;20026;-75
2022/07/06 09:44:25;;;;;;;1.30;0.80;;;29.40;66.80;;;;;;5012990;28;20018;-76
2022/07/06 09:46:52;;;;;;;0.90;0.90;;;29.40;67.50;;;;;;5012820;28;20045;-75
2022/07/06 09:49:22;;;;;;;2.53;1.25;;;29.40;68.00;;;;;;4995389;28;20034;-75
2022/07/06 09:51:50;;;;;;;3.35;0.93;;;29.40;67.00;;;;;;5012749;28;20030;-76
2022/07/06 09:54:17;;;;;;;2.90;1.00;;;29.40;65.90;;;;;;5012759;28;20034;-75
2022/07/06 09:56:47;;;;;;;1.42;1.13;;;29.50;65.50;;;;;;4994898;28;20026;-76
2022/07/06 09:59:15;;;;;;;1.07;1.07;;;29.50;65.00;;;;;;5012836;28;20026;-75
2022/07/06 10:01:42;;;;;;;1.30;1.05;;;29.60;66.80;;;;;;4998763;28;20379;-75
2022/07/06 10:04:13;;;;;;;5.38;1.10;;;29.60;65.10;;;;;;5016561;28;20484;-74
2022/07/06 10:06:40;;;;;;;1.65;1.42;;;29.80;65.00;;;;;;4998913;28;20069;-75
2022/07/06 10:09:08;;;;;;;1.60;1.50;;;29.90;64.70;;;;;;5016656;28;20434;-77
2022/07/06 10:11:44;;;;;;;2.38;1.48;;;29.90;63.00;;;;;;4998962;28;20503;-76
2022/07/06 10:14:11;;;;;;;1.15;1.00;;;29.90;62.00;;;;;;5016609;28;20022;-75
2022/07/06 10:16:38;;;;;;;1.08;1.08;;;30.00;62.40;;;;;;4998417;28;20058;-75
2022/07/06 10:19:06;;;;;;;1.20;1.10;;;30.00;62.00;;;;;;5016336;28;20018;-75
2022/07/06 10:21:35;;;;;;;1.08;0.90;;;30.00;63.70;;;;;;5016578;28;20459;-75
2022/07/06 10:24:02;;;;;;;1.00;1.00;;;30.20;62.10;;;;;;5016346;28;20029;-75
2022/07/06 10:26:30;;;;;;;1.02;1.02;;;30.20;60.30;;;;;;5016041;28;20024;-75
2022/07/06 10:28:58;;;;;;;1.38;1.20;;;30.30;60.40;;;;;;5016140;28;20595;-75
2022/07/06 10:31:24;;;;;;;1.55;1.20;;;30.30;58.60;;;;;;5016365;28;20505;-75
2022/07/06 10:33:52;;;;;;;0.90;0.90;;;30.40;60.20;;;;;;5015996;28;20022;-75
2022/07/06 10:36:17;;;;;;;1.08;1.08;;;30.50;59.10;;;;;;5015965;28;20088;-76
2022/07/06 10:38:49;;;;;;;1.35;0.90;;;30.50;58.30;;;;;;5015811;28;20022;-76
2022/07/06 10:41:14;;;;;;;1.92;1.35;;;30.60;59.20;;;;;;4998301;28;20029;-75
2022/07/06 10:43:45;;;;;;;2.20;1.60;;;30.70;57.40;;;;;;5015868;28;20407;-75
2022/07/06 10:46:13;;;;;;;1.05;1.05;;;30.90;58.40;;;;;;4998236;28;20471;-75
2022/07/06 10:48:49;;;;;;;3.63;1.42;;;31.00;58.10;;;;;;5015553;28;20411;-75
2022/07/06 10:51:32;;;;;;;2.35;1.52;;;31.20;56.50;;;;;;5015728;28;20069;-75
2022/07/06 10:54:04;;;;;;;0.88;0.70;;;31.10;54.90;;;;;;5015954;28;20460;-75
2022/07/06 10:56:38;;;;;;;1.55;1.05;;;31.10;56.50;;;;;;5015721;28;20022;-75
2022/07/06 10:59:13;;;;;;;2.67;1.02;;;31.40;57.20;;;;;;4999022;28;20030;-75
2022/07/06 11:01:39;;;;;;;1.10;1.00;;;31.70;55.30;;;;;;4978568;28;20121;-75
2022/07/06 11:04:07;;;;;;;1.75;1.15;;;31.70;53.70;;;;;;4995800;28;20507;-75
2022/07/06 11:06:38;;;;;;;1.00;1.00;;;31.60;54.80;;;;;;4995908;28;20027;-75
2022/07/06 11:09:11;;;;;;;1.20;1.20;;;31.50;54.90;;;;;;4996096;28;20058;-75
2022/07/06 11:11:36;;;;;;;3.33;0.93;;;31.50;54.80;;;;;;4977224;28;20412;-75
2022/07/06 11:14:21;;;;;;;0.93;0.93;;;31.40;54.00;;;;;;4978309;28;20032;-75
2022/07/06 11:16:49;;;;;;;1.10;1.00;;;31.50;55.30;;;;;;4977897;28;20081;-75
2022/07/06 11:19:16;;;;;;;2.88;1.10;;;31.70;54.70;;;;;;4995780;28;20109;-75
2022/07/06 11:21:46;;;;;;;0.65;0.65;;;31.90;53.80;;;;;;4978123;28;20026;-75
2022/07/06 11:24:17;;;;;;;0.90;0.90;;;31.90;53.30;;;;;;4977948;28;20034;-75
2022/07/06 11:26:46;;;;;;;1.15;1.05;;;32.00;52.80;;;;;;4995538;28;20091;-75
2022/07/06 11:29:13;;;;;;;1.98;0.98;;;32.00;53.10;;;;;;4978130;28;20058;-75
2022/07/06 11:31:44;;;;;;;1.08;1.08;;;32.10;52.40;;;;;;4978067;28;20022;-75
2022/07/06 11:34:14;;;;;;;1.13;1.13;;;32.10;52.40;;;;;;4977863;28;20089;-75
2022/07/06 11:36:40;;;;;;;0.93;0.82;;;32.10;51.00;;;;;;4977852;28;20539;-75
2022/07/06 11:39:07;;;;;;;1.85;1.17;;;32.10;51.60;;;;;;4995367;28;20029;-75
2022/07/06 11:41:33;;;;;;;0.80;0.80;;;32.20;52.00;;;;;;4978009;28;20070;-75
2022/07/06 11:44:00;;;;;;;2.90;0.82;;;32.10;51.80;;;;;;4995470;28;20109;-75
2022/07/06 11:46:35;;;;;;;2.63;1.00;;;32.40;52.40;;;;;;4995206;28;20076;-75
2022/07/06 11:49:03;;;;;;;0.77;0.77;;;32.60;52.20;;;;;;4977469;28;20027;-75
2022/07/06 11:51:32;;;;;;;1.20;1.10;;;32.70;52.00;;;;;;4995228;28;20052;-75
2022/07/06 11:54:00;;;;;;;3.47;1.00;;;33.00;52.10;;;;;;4977482;28;20027;-75
2022/07/06 11:56:29;;;;;;;0.88;0.88;;;33.10;51.10;;;;;;4977534;28;20031;-75
2022/07/06 11:58:57;;;;;;;1.42;1.25;;;33.10;49.20;;;;;;4995005;28;20053;-76
2022/07/06 12:01:24;;;;;;;0.93;0.90;;;33.10;49.60;;;;;;4977442;28;20481;-75
2022/07/06 12:03:51;;;;;;;1.30;1.20;;;33.10;49.30;;;;;;4994595;28;20142;-75
2022/07/06 12:06:22;;;;;;;1.33;0.95;;;33.10;49.00;;;;;;4994791;28;20465;-75
2022/07/06 12:08:53;;;;;;;0.90;0.90;;;33.10;49.50;;;;;;5004002;28;20028;-75
2022/07/06 12:11:28;;;;;;;0.87;0.80;;;33.20;49.30;;;;;;5014315;28;20439;-75
2022/07/06 12:14:00;;;;;;;2.35;1.00;;;33.20;49.50;;;;;;4996577;28;20357;-75
2022/07/06 12:16:36;;;;;;;0.98;0.98;;;33.40;49.30;;;;;;5014043;28;20363;-75
2022/07/06 12:19:05;;;;;;;1.40;1.27;;;33.60;51.00;;;;;;5014367;28;20368;-75
2022/07/06 12:21:31;;;;;;;1.25;0.98;;;33.80;49.30;;;;;;5014073;28;20028;-75
2022/07/06 12:23:58;;;;;;;1.02;1.00;;;33.70;48.00;;;;;;5013815;28;20029;-75
2022/07/06 12:26:28;;;;;;;0.90;0.90;;;33.70;49.00;;;;;;5013909;28;20026;-75
2022/07/06 12:29:05;;;;;;;1.08;0.93;;;33.80;48.50;;;;;;4996274;28;20029;-75
2022/07/06 12:31:41;;;;;;;3.83;1.00;;;33.70;48.20;;;;;;5013805;28;20070;-75
2022/07/06 12:34:19;;;;;;;0.80;0.80;;;33.70;48.90;;;;;;5013777;28;20372;-75
2022/07/06 12:36:46;;;;;;;3.53;1.10;;;33.60;48.90;;;;;;5013660;28;20026;-75
2022/07/06 12:39:13;;;;;;;1.42;1.05;;;33.90;49.50;;;;;;4996383;28;20029;-75
2022/07/06 12:41:48;;;;;;;0.90;0.90;;;34.10;50.10;;;;;;5013613;28;20057;-74
2022/07/06 12:44:17;;;;;;;0.85;0.82;;;34.40;50.70;;;;;;5013749;28;20452;-75
2022/07/06 12:46:44;;;;;;;0.68;0.68;;;34.50;48.30;;;;;;5013606;28;20127;-75
2022/07/06 12:49:16;;;;;;;0.95;0.90;;;34.60;47.40;;;;;;5007909;28;20022;-75
2022/07/06 12:51:51;;;;;;;2.25;0.88;;;34.60;47.70;;;;;;4976155;28;20023;-75